createdAt,value
2023-05-17T00:02:02.290Z,46.50
2023-05-17T00:04:29.280Z,46.50
2023-05-17T00:06:56.117Z,46.50
2023-05-17T00:09:22.972Z,46.60
2023-05-17T00:11:49.837Z,46.60
2023-05-17T00:14:16.717Z,46.70
2023-05-17T00:16:43.615Z,46.80
2023-05-17T00:19:10.674Z,46.80
2023-05-17T00:21:38.120Z,46.80
2023-05-17T00:24:05.445Z,46.80
2023-05-17T00:26:33.714Z,46.80
2023-05-17T00:29:00.863Z,46.80
2023-05-17T00:31:27.972Z,46.90
2023-05-17T00:33:54.987Z,46.90
2023-05-17T00:36:22.123Z,46.90
2023-05-17T00:38:48.985Z,46.90
2023-05-17T00:41:15.813Z,46.80
2023-05-17T00:43:42.683Z,46.90
2023-05-17T00:46:10.047Z,46.90
2023-05-17T00:48:37.045Z,47.80
2023-05-17T00:51:04.082Z,46.90
2023-05-17T00:53:31.010Z,46.90
2023-05-17T00:55:57.980Z,46.80
2023-05-17T00:58:25.295Z,46.80
2023-05-17T01:00:52.589Z,46.80
2023-05-17T01:03:19.680Z,47.80
2023-05-17T01:05:46.740Z,46.80
2023-05-17T01:08:13.580Z,46.90
2023-05-17T01:10:49.448Z,46.80
2023-05-17T01:13:37.067Z,46.90
2023-05-17T01:16:29.988Z,46.90
2023-05-17T01:19:06.922Z,46.80
2023-05-17T01:21:54.755Z,46.90
2023-05-17T01:24:39.929Z,46.90
2023-05-17T01:27:10.137Z,46.90
2023-05-17T01:29:40.128Z,46.90
2023-05-17T01:32:08.421Z,47.00
2023-05-17T01:34:35.421Z,46.90
2023-05-17T01:37:03.000Z,46.90
2023-05-17T01:39:30.464Z,47.00
2023-05-17T01:42:03.955Z,46.90
2023-05-17T01:44:45.705Z,47.00
2023-05-17T01:47:20.981Z,47.00
2023-05-17T01:49:53.014Z,46.90
2023-05-17T01:52:46.178Z,47.00
2023-05-17T01:55:37.854Z,46.90
2023-05-17T01:58:07.955Z,47.00
2023-05-17T02:00:36.124Z,47.10
2023-05-17T02:03:03.313Z,47.10
2023-05-17T02:05:30.482Z,47.20
2023-05-17T02:07:57.472Z,47.20
2023-05-17T02:10:24.457Z,47.20
2023-05-17T02:12:51.407Z,47.50
2023-05-17T02:15:18.311Z,47.20
2023-05-17T02:17:45.913Z,47.20
2023-05-17T02:20:14.192Z,47.20
2023-05-17T02:22:41.155Z,47.20
2023-05-17T02:25:08.550Z,47.20
2023-05-17T02:27:36.126Z,47.20
2023-05-17T02:30:04.462Z,47.20
2023-05-17T02:32:32.168Z,47.30
2023-05-17T02:34:59.339Z,47.30
2023-05-17T02:37:26.324Z,47.30
2023-05-17T02:39:53.287Z,47.50
2023-05-17T02:42:20.233Z,47.30
2023-05-17T02:44:52.790Z,47.40
2023-05-17T02:47:22.648Z,47.40
2023-05-17T02:49:49.587Z,47.40
2023-05-17T02:52:16.438Z,47.50
2023-05-17T02:54:43.839Z,47.50
2023-05-17T02:57:11.150Z,47.60
2023-05-17T02:59:38.157Z,47.50
2023-05-17T03:02:05.571Z,47.60
2023-05-17T03:04:33.903Z,47.60
2023-05-17T03:07:00.747Z,47.60
2023-05-17T03:09:30.165Z,47.60
2023-05-17T03:11:57.842Z,47.70
2023-05-17T03:14:28.181Z,47.80
2023-05-17T03:16:55.078Z,47.70
2023-05-17T03:19:22.943Z,47.80
2023-05-17T03:21:50.696Z,47.80
2023-05-17T03:24:18.326Z,47.80
2023-05-17T03:26:45.374Z,47.80
2023-05-17T03:29:13.070Z,47.90
2023-05-17T03:31:42.523Z,47.90
2023-05-17T03:34:09.528Z,47.90
2023-05-17T03:36:39.521Z,47.90
2023-05-17T03:39:06.594Z,47.90
2023-05-17T03:41:34.465Z,47.90
2023-05-17T03:44:01.523Z,47.90
2023-05-17T03:46:28.597Z,48.00
2023-05-17T03:48:55.614Z,47.90
2023-05-17T03:51:22.658Z,47.90
2023-05-17T03:53:57.222Z,48.00
2023-05-17T03:56:25.139Z,48.50
2023-05-17T03:58:52.615Z,47.90
2023-05-17T04:01:20.517Z,47.90
2023-05-17T04:03:48.467Z,48.00
2023-05-17T04:06:16.118Z,48.00
2023-05-17T04:08:43.382Z,47.90
2023-05-17T04:11:12.764Z,47.90
2023-05-17T04:13:40.660Z,48.00
2023-05-17T04:16:10.988Z,47.90
2023-05-17T04:18:41.150Z,47.90
2023-05-17T04:21:09.212Z,47.90
2023-05-17T04:23:37.256Z,47.90
2023-05-17T04:26:06.125Z,47.90
2023-05-17T04:28:35.947Z,47.90
2023-05-17T04:31:08.189Z,47.90
2023-05-17T04:33:36.908Z,47.90
2023-05-17T04:36:04.202Z,47.80
2023-05-17T04:38:32.589Z,47.80
2023-05-17T04:41:06.613Z,47.80
2023-05-17T04:43:36.412Z,47.80
2023-05-17T04:46:07.157Z,47.70
2023-05-17T04:48:34.839Z,47.80
2023-05-17T04:51:06.356Z,47.70
2023-05-17T04:53:33.619Z,47.70
2023-05-17T04:56:06.917Z,47.70
2023-05-17T04:58:33.918Z,47.70
2023-05-17T05:01:02.466Z,47.70
2023-05-17T05:03:29.532Z,47.70
2023-05-17T05:05:56.648Z,47.70
2023-05-17T05:08:24.081Z,47.60
2023-05-17T05:10:52.468Z,47.60
2023-05-17T05:13:22.576Z,47.60
2023-05-17T05:15:51.142Z,47.50
2023-05-17T05:18:18.265Z,47.60
2023-05-17T05:20:48.146Z,47.40
2023-05-17T05:23:15.250Z,47.30
2023-05-17T05:25:44.576Z,47.30
2023-05-17T05:28:12.266Z,47.30
2023-05-17T05:30:41.017Z,47.30
2023-05-17T05:33:08.239Z,47.30
2023-05-17T05:35:35.628Z,47.30
2023-05-17T05:38:03.110Z,47.30
2023-05-17T05:40:30.600Z,47.40
2023-05-17T05:42:57.794Z,47.40
2023-05-17T05:45:24.772Z,47.40
2023-05-17T05:47:53.852Z,47.40
2023-05-17T05:50:21.007Z,47.50
2023-05-17T05:52:48.998Z,47.60
2023-05-17T05:55:15.952Z,47.60
2023-05-17T05:57:43.422Z,47.70
2023-05-17T06:00:12.701Z,47.70
2023-05-17T06:02:42.687Z,47.80
2023-05-17T06:05:09.715Z,47.80
2023-05-17T06:07:36.597Z,48.00
2023-05-17T06:10:03.582Z,48.10
2023-05-17T06:12:30.437Z,48.10
2023-05-17T06:14:57.339Z,48.10
2023-05-17T06:17:24.270Z,48.30
2023-05-17T06:19:52.553Z,48.20
2023-05-17T06:22:19.516Z,48.30
2023-05-17T06:24:46.393Z,48.20
2023-05-17T06:27:13.274Z,48.20
2023-05-17T06:29:40.144Z,48.20
2023-05-17T06:32:07.249Z,48.00
2023-05-17T06:34:34.145Z,47.90
2023-05-17T06:37:01.070Z,47.90
2023-05-17T06:39:27.941Z,47.90
2023-05-17T06:41:54.875Z,47.80
2023-05-17T06:44:21.736Z,47.80
2023-05-17T06:46:48.554Z,47.70
2023-05-17T06:49:15.431Z,47.70
2023-05-17T06:51:42.339Z,47.70
2023-05-17T06:54:09.203Z,47.70
2023-05-17T06:56:36.130Z,47.60
2023-05-17T06:59:03.051Z,47.50
2023-05-17T07:01:30.353Z,47.40
2023-05-17T07:03:57.451Z,47.30
2023-05-17T07:06:24.697Z,47.30
2023-05-17T07:08:51.545Z,47.20
2023-05-17T07:11:18.401Z,47.00
2023-05-17T07:13:46.756Z,46.80
2023-05-17T07:16:13.690Z,46.60
2023-05-17T07:18:40.730Z,46.50
2023-05-17T07:21:07.785Z,46.50
2023-05-17T07:23:34.685Z,46.40
2023-05-17T07:26:01.762Z,46.40
2023-05-17T07:28:28.627Z,46.20
2023-05-17T07:30:55.666Z,46.10
2023-05-17T07:33:22.601Z,46.00
2023-05-17T07:35:49.484Z,45.90
2023-05-17T07:38:17.261Z,45.90
2023-05-17T07:40:44.132Z,45.80
2023-05-17T07:43:10.989Z,45.70
2023-05-17T07:45:37.819Z,45.50
2023-05-17T07:48:05.050Z,45.40
2023-05-17T07:50:33.038Z,45.40
2023-05-17T07:52:59.977Z,45.30
2023-05-17T07:55:26.977Z,45.20
2023-05-17T07:57:53.968Z,45.20
2023-05-17T08:00:21.338Z,45.10
2023-05-17T08:02:48.784Z,45.00
2023-05-17T08:05:15.838Z,45.00
2023-05-17T08:07:42.723Z,45.10
2023-05-17T08:10:10.070Z,45.00
2023-05-17T08:12:37.020Z,45.00
2023-05-17T08:15:04.164Z,45.00
2023-05-17T08:17:31.140Z,45.00
2023-05-17T08:19:58.030Z,45.00
2023-05-17T08:22:24.942Z,44.90
2023-05-17T08:24:51.780Z,44.90
2023-05-17T08:27:18.694Z,44.80
2023-05-17T08:29:45.610Z,44.90
2023-05-17T08:32:12.484Z,44.90
2023-05-17T08:34:39.412Z,44.80
2023-05-17T08:37:06.311Z,44.70
2023-05-17T08:39:33.729Z,44.60
2023-05-17T08:42:02.540Z,44.60
2023-05-17T08:44:29.632Z,44.70
2023-05-17T08:46:59.142Z,44.80
2023-05-17T08:49:28.850Z,45.10
2023-05-17T08:51:59.287Z,45.10
2023-05-17T08:54:26.692Z,45.10
2023-05-17T08:57:00.608Z,45.10
2023-05-17T08:59:33.983Z,45.10
2023-05-17T09:02:02.070Z,45.00
2023-05-17T09:04:31.081Z,44.90
2023-05-17T09:06:58.911Z,44.80
2023-05-17T09:09:27.134Z,44.80
2023-05-17T09:11:54.314Z,44.80
2023-05-17T09:14:21.361Z,44.80
2023-05-17T09:16:55.645Z,44.80
2023-05-17T09:19:22.587Z,44.80
2023-05-17T09:21:49.796Z,44.60
2023-05-17T09:24:26.986Z,44.60
2023-05-17T09:26:53.889Z,44.60
2023-05-17T09:29:20.740Z,44.50
2023-05-17T09:31:47.661Z,44.50
2023-05-17T09:34:19.428Z,44.30
2023-05-17T09:36:46.808Z,44.10
2023-05-17T09:39:15.061Z,44.10
2023-05-17T09:41:47.882Z,43.90
2023-05-17T09:44:15.986Z,43.80
2023-05-17T09:46:45.824Z,43.80
2023-05-17T09:49:13.987Z,43.80
2023-05-17T09:51:46.739Z,43.80
2023-05-17T09:54:13.969Z,43.80
2023-05-17T09:56:41.337Z,43.70
2023-05-17T09:59:13.323Z,43.60
2023-05-17T10:01:41.207Z,43.60
2023-05-17T10:04:12.045Z,43.60
2023-05-17T10:06:49.505Z,43.50
2023-05-17T10:09:21.102Z,43.50
2023-05-17T10:11:48.670Z,43.40
2023-05-17T10:14:27.471Z,43.40
2023-05-17T10:16:54.740Z,43.40
2023-05-17T10:19:22.088Z,43.50
2023-05-17T10:21:51.209Z,43.40
2023-05-17T10:24:19.874Z,43.40
2023-05-17T10:26:47.535Z,43.40
2023-05-17T10:29:16.153Z,43.40
2023-05-17T10:31:45.341Z,43.40
2023-05-17T10:34:15.875Z,43.40
2023-05-17T10:36:44.684Z,43.30
2023-05-17T10:39:12.218Z,43.30
2023-05-17T10:41:44.806Z,43.40
2023-05-17T10:44:14.956Z,43.30
2023-05-17T10:47:00.391Z,43.40
2023-05-17T10:49:31.039Z,43.30
2023-05-17T10:52:13.169Z,43.40
2023-05-17T10:54:42.070Z,43.10
2023-05-17T10:57:09.854Z,43.20
2023-05-17T10:59:55.219Z,43.10
2023-05-17T11:02:25.356Z,43.00
2023-05-17T11:04:56.620Z,42.90
2023-05-17T11:07:29.547Z,42.80
2023-05-17T11:10:20.548Z,42.70
2023-05-17T11:12:54.092Z,42.70
2023-05-17T11:15:28.660Z,42.60
2023-05-17T11:17:58.270Z,42.50
2023-05-17T11:20:25.282Z,42.40
2023-05-17T11:23:07.046Z,42.30
2023-05-17T11:25:38.903Z,42.20
2023-05-17T11:28:10.031Z,42.20
2023-05-17T11:30:43.516Z,42.10
2023-05-17T11:33:24.862Z,42.00
2023-05-17T11:36:03.769Z,42.00
2023-05-17T11:38:32.535Z,42.00
2023-05-17T11:41:26.997Z,41.90
2023-05-17T11:43:55.337Z,41.70
2023-05-17T11:46:24.672Z,41.80
2023-05-17T11:48:53.177Z,41.70
2023-05-17T11:51:22.885Z,41.70
2023-05-17T11:53:55.105Z,41.70
2023-05-17T11:56:32.146Z,41.50
2023-05-17T11:59:04.139Z,41.50
2023-05-17T12:01:51.735Z,41.50
2023-05-17T12:04:26.673Z,41.40
2023-05-17T12:06:55.242Z,41.30
2023-05-17T12:09:26.157Z,41.40
2023-05-17T12:11:53.444Z,41.40
2023-05-17T12:14:21.754Z,41.40
2023-05-17T12:16:56.397Z,41.30
2023-05-17T12:19:26.230Z,41.30
2023-05-17T12:21:53.148Z,41.30
2023-05-17T12:24:20.135Z,41.20
2023-05-17T12:26:48.322Z,41.20
2023-05-17T12:29:22.850Z,41.10
2023-05-17T12:31:52.467Z,41.10
2023-05-17T12:34:19.609Z,41.00
2023-05-17T12:36:47.089Z,41.00
2023-05-17T12:39:15.595Z,40.90
2023-05-17T12:41:44.252Z,40.90
2023-05-17T12:44:15.975Z,40.80
2023-05-17T12:46:43.973Z,40.70
2023-05-17T12:49:12.230Z,40.70
2023-05-17T12:51:46.184Z,40.60
2023-05-17T12:54:34.422Z,40.50
2023-05-17T12:57:12.971Z,40.60
2023-05-17T12:59:50.115Z,40.50
2023-05-17T13:02:19.085Z,40.50
2023-05-17T13:04:46.642Z,40.60
2023-05-17T13:07:21.659Z,40.50
2023-05-17T13:09:48.863Z,40.40
2023-05-17T13:12:23.910Z,40.40
2023-05-17T13:14:53.108Z,40.20
2023-05-17T13:17:34.769Z,40.20
2023-05-17T13:20:02.320Z,40.00
2023-05-17T13:22:29.311Z,40.10
2023-05-17T13:24:56.144Z,40.10
2023-05-17T13:27:23.138Z,40.20
2023-05-17T13:29:50.084Z,40.20
2023-05-17T13:32:17.044Z,40.10
2023-05-17T13:34:43.959Z,41.00
2023-05-17T13:37:12.544Z,40.10
2023-05-17T13:39:41.160Z,40.10
2023-05-17T13:42:08.357Z,41.00
2023-05-17T13:44:35.431Z,40.10
2023-05-17T13:47:02.571Z,40.00
2023-05-17T13:49:29.494Z,40.00
2023-05-17T13:51:56.806Z,40.00
2023-05-17T13:54:23.868Z,39.90
2023-05-17T13:56:50.817Z,39.90
2023-05-17T13:59:17.755Z,39.80
2023-05-17T14:01:45.104Z,39.80
2023-05-17T14:04:12.201Z,39.80
2023-05-17T14:06:39.466Z,39.80
2023-05-17T14:09:06.469Z,39.80
2023-05-17T14:11:34.271Z,39.80
2023-05-17T14:14:01.381Z,39.80
2023-05-17T14:16:28.385Z,39.70
2023-05-17T14:18:55.695Z,39.80
2023-05-17T14:21:22.819Z,39.80
2023-05-17T14:23:49.760Z,39.70
2023-05-17T14:26:16.797Z,39.70
2023-05-17T14:28:43.782Z,39.70
2023-05-17T14:31:10.786Z,39.60
2023-05-17T14:33:37.889Z,39.60
2023-05-17T14:36:05.106Z,39.50
2023-05-17T14:38:32.098Z,39.50
2023-05-17T14:41:00.822Z,39.30
2023-05-17T14:43:28.328Z,39.20
2023-05-17T14:45:55.426Z,39.20
2023-05-17T14:48:22.505Z,39.20
2023-05-17T14:50:49.679Z,39.00
2023-05-17T14:53:16.634Z,39.00
2023-05-17T14:55:43.690Z,38.80
2023-05-17T14:58:13.526Z,38.80
2023-05-17T15:00:41.980Z,38.70
2023-05-17T15:03:09.220Z,38.70
2023-05-17T15:05:37.065Z,38.60
2023-05-17T15:08:04.389Z,38.50
2023-05-17T15:10:31.796Z,38.40
2023-05-17T15:12:58.641Z,38.40
2023-05-17T15:15:25.447Z,38.40
2023-05-17T15:17:52.946Z,38.30
2023-05-17T15:20:20.474Z,38.30
2023-05-17T15:22:48.429Z,38.20
2023-05-17T15:25:16.158Z,38.20
2023-05-17T15:27:43.309Z,38.20
2023-05-17T15:30:13.324Z,38.00
2023-05-17T15:32:40.932Z,38.00
2023-05-17T15:35:08.314Z,37.90
2023-05-17T15:37:35.255Z,37.80
2023-05-17T15:40:11.456Z,37.70
2023-05-17T15:42:38.320Z,37.50
2023-05-17T15:45:06.328Z,37.50
2023-05-17T15:50:03.945Z,37.30
2023-05-17T15:52:30.850Z,37.10
2023-05-17T15:54:57.902Z,37.10
2023-05-17T15:57:24.802Z,37.10
2023-05-17T15:59:52.069Z,37.20
2023-05-17T16:02:19.428Z,37.30
2023-05-17T16:04:46.392Z,37.30
2023-05-17T16:07:13.272Z,37.30
2023-05-17T16:09:40.192Z,37.30
2023-05-17T16:12:07.354Z,37.30
2023-05-17T16:14:34.314Z,37.30
2023-05-17T16:17:05.349Z,37.30
2023-05-17T16:19:34.242Z,37.40
2023-05-17T16:22:01.623Z,37.30
2023-05-17T16:24:28.889Z,37.40
2023-05-17T16:26:55.820Z,37.40
2023-05-17T16:29:22.743Z,37.50
2023-05-17T16:31:51.445Z,37.50
2023-05-17T16:34:18.514Z,37.50
2023-05-17T16:36:47.743Z,37.70
2023-05-17T16:39:14.594Z,37.80
2023-05-17T16:41:41.590Z,37.90
2023-05-17T16:44:08.564Z,38.00
2023-05-17T16:46:36.893Z,38.00
2023-05-17T16:49:03.956Z,38.10
2023-05-17T16:51:31.425Z,38.10
2023-05-17T16:53:58.248Z,38.20
2023-05-17T16:56:25.108Z,38.30
2023-05-17T16:58:52.386Z,38.40
2023-05-17T17:01:19.361Z,38.40
2023-05-17T17:03:46.332Z,38.40
2023-05-17T17:06:13.245Z,38.40
2023-05-17T17:08:40.213Z,38.50
2023-05-17T17:11:07.114Z,38.70
2023-05-17T17:13:34.125Z,38.80
2023-05-17T17:16:01.325Z,38.70
2023-05-17T17:18:29.077Z,38.60
2023-05-17T17:20:57.263Z,38.60
2023-05-17T17:23:24.191Z,38.60
2023-05-17T17:25:51.128Z,38.70
2023-05-17T17:28:17.989Z,38.60
2023-05-17T17:30:44.835Z,38.70
2023-05-17T17:33:11.768Z,38.70
2023-05-17T17:35:38.911Z,38.80
2023-05-17T17:38:06.187Z,38.80
2023-05-17T17:40:33.184Z,38.90
2023-05-17T17:43:00.200Z,38.90
2023-05-17T17:45:27.148Z,39.00
2023-05-17T17:47:54.131Z,39.10
2023-05-17T17:50:21.982Z,39.30
2023-05-17T17:52:50.398Z,39.30
2023-05-17T17:55:17.265Z,39.60
2023-05-17T17:57:44.397Z,39.60
2023-05-17T18:00:13.086Z,39.70
2023-05-17T18:02:40.089Z,39.80
2023-05-17T18:05:07.516Z,39.80
2023-05-17T18:07:34.445Z,39.80
2023-05-17T18:10:01.992Z,39.90
2023-05-17T18:12:29.159Z,39.80
2023-05-17T18:14:56.125Z,39.90
2023-05-17T18:17:23.365Z,40.00
2023-05-17T18:19:50.441Z,40.00
2023-05-17T18:22:17.442Z,40.00
2023-05-17T18:24:45.089Z,40.10
2023-05-17T18:27:13.815Z,40.10
2023-05-17T18:29:41.188Z,40.00
2023-05-17T18:32:09.207Z,40.00
2023-05-17T18:34:36.975Z,39.90
2023-05-17T18:37:04.098Z,40.80
2023-05-17T18:39:31.101Z,39.90
2023-05-17T18:41:57.929Z,39.80
2023-05-17T18:44:24.848Z,39.80
2023-05-17T18:46:52.087Z,39.80
2023-05-17T18:49:19.186Z,39.80
2023-05-17T18:51:46.162Z,39.70
2023-05-17T18:54:13.204Z,39.80
2023-05-17T18:56:40.091Z,39.70
2023-05-17T18:59:06.977Z,39.70
2023-05-17T19:01:34.110Z,39.80
2023-05-17T19:04:01.217Z,39.70
2023-05-17T19:06:28.146Z,39.70
2023-05-17T19:08:58.115Z,39.80
2023-05-17T19:11:25.051Z,39.80
2023-05-17T19:13:52.000Z,39.80
2023-05-17T19:16:18.929Z,39.70
2023-05-17T19:18:45.900Z,39.70
2023-05-17T19:21:12.819Z,39.80
2023-05-17T19:23:39.690Z,39.80
2023-05-17T19:26:06.581Z,39.80
2023-05-17T19:28:35.890Z,39.80
2023-05-17T19:31:03.834Z,40.90
2023-05-17T19:33:31.992Z,39.90
2023-05-17T19:35:58.909Z,39.70
2023-05-17T19:38:25.983Z,39.60
2023-05-17T19:40:53.325Z,39.70
2023-05-17T19:43:20.257Z,39.80
2023-05-17T19:45:47.216Z,39.70
2023-05-17T19:48:14.088Z,39.70
2023-05-17T19:50:40.989Z,39.70
2023-05-17T19:53:08.019Z,40.00
2023-05-17T19:55:36.355Z,40.20
2023-05-17T19:58:03.903Z,40.30
2023-05-17T20:00:32.652Z,40.30
2023-05-17T20:02:59.851Z,40.50
2023-05-17T20:05:27.239Z,40.80
2023-05-17T20:07:55.271Z,40.90
2023-05-17T20:10:22.392Z,40.90
2023-05-17T20:12:49.278Z,40.90
2023-05-17T20:15:16.205Z,41.00
2023-05-17T20:17:43.123Z,41.00
2023-05-17T20:20:10.331Z,40.90
2023-05-17T20:22:37.797Z,40.90
2023-05-17T20:25:04.959Z,41.30
2023-05-17T20:27:31.883Z,41.30
2023-05-17T20:29:58.778Z,41.30
2023-05-17T20:32:25.784Z,41.40
2023-05-17T20:34:52.787Z,41.40
2023-05-17T20:37:19.637Z,41.60
2023-05-17T20:39:46.492Z,41.70
2023-05-17T20:42:18.014Z,41.80
2023-05-17T20:44:45.401Z,41.90
2023-05-17T20:47:12.336Z,41.90
2023-05-17T20:49:39.292Z,42.00
2023-05-17T20:52:06.480Z,42.00
2023-05-17T20:54:33.497Z,42.00
2023-05-17T20:57:00.566Z,41.90
2023-05-17T20:59:27.612Z,41.90
2023-05-17T21:01:54.612Z,41.90
2023-05-17T21:04:21.824Z,41.70
2023-05-17T21:06:48.762Z,41.70
2023-05-17T21:09:15.682Z,41.90
2023-05-17T21:11:44.085Z,42.10
2023-05-17T21:14:10.977Z,42.10
2023-05-17T21:16:38.058Z,42.10
2023-05-17T21:19:05.172Z,42.10
2023-05-17T21:21:32.084Z,42.10
2023-05-17T21:23:58.957Z,42.10
2023-05-17T21:28:55.212Z,42.10
2023-05-17T21:31:22.439Z,42.90
2023-05-17T21:33:49.699Z,41.90
2023-05-17T21:36:16.552Z,42.00
2023-05-17T21:38:44.100Z,42.20
2023-05-17T21:41:11.005Z,43.20
2023-05-17T21:43:37.935Z,42.10
2023-05-17T21:46:04.883Z,42.20
2023-05-17T21:48:31.860Z,42.20
2023-05-17T21:50:58.773Z,42.10
2023-05-17T21:53:25.660Z,42.20
2023-05-17T21:56:02.236Z,42.30
2023-05-17T21:58:30.907Z,42.30
2023-05-17T22:00:58.291Z,42.30
2023-05-17T22:03:25.587Z,42.30
2023-05-17T22:05:52.641Z,42.40
2023-05-17T22:08:19.656Z,42.40
2023-05-17T22:10:46.673Z,42.50
2023-05-17T22:13:15.853Z,42.60
2023-05-17T22:15:42.870Z,42.50
2023-05-17T22:18:12.524Z,42.50
2023-05-17T22:20:39.603Z,42.50
2023-05-17T22:23:06.480Z,42.60
2023-05-17T22:25:33.552Z,42.60
2023-05-17T22:28:00.501Z,42.60
2023-05-17T22:30:27.422Z,42.90
2023-05-17T22:32:57.149Z,42.90
2023-05-17T22:35:24.525Z,42.80
2023-05-17T22:37:51.907Z,42.80
2023-05-17T22:40:19.162Z,42.90
2023-05-17T22:42:46.947Z,42.90
2023-05-17T22:45:14.485Z,42.90
2023-05-17T22:47:46.861Z,43.80
2023-05-17T22:50:15.691Z,42.90
2023-05-17T22:52:43.090Z,42.70
2023-05-17T22:55:10.696Z,42.70
2023-05-17T22:57:37.835Z,42.60
2023-05-17T23:00:06.374Z,42.60
2023-05-17T23:02:33.322Z,42.60
2023-05-17T23:05:03.765Z,42.50
2023-05-17T23:07:37.135Z,42.50
2023-05-17T23:10:06.804Z,42.60
2023-05-17T23:12:34.215Z,42.40
2023-05-17T23:15:05.029Z,42.40
2023-05-17T23:17:33.936Z,42.30
2023-05-17T23:20:02.215Z,42.30
2023-05-17T23:22:31.492Z,42.30
2023-05-17T23:24:58.697Z,42.20
2023-05-17T23:27:26.100Z,42.20
2023-05-17T23:29:54.064Z,42.20
2023-05-17T23:32:21.901Z,42.20
2023-05-17T23:34:49.560Z,42.20
2023-05-17T23:37:16.883Z,42.10
2023-05-17T23:39:43.805Z,42.10
2023-05-17T23:42:10.900Z,42.10
2023-05-17T23:44:37.889Z,42.00
2023-05-17T23:47:05.176Z,42.00
2023-05-17T23:49:32.093Z,42.00
2023-05-17T23:51:59.029Z,42.00
2023-05-17T23:54:25.929Z,42.00
2023-05-17T23:56:52.800Z,42.00
2023-05-17T23:59:22.749Z,42.00
